sensor_id;sensor_type;location;lat;lon;timestamp;pressure;altitude;pressure_sealevel;temperature;humidity
22582;BME280;47125;48.542;9.052;2022-11-04T00:01:24;95121.81;;;11.59;85.52
22582;BME280;47125;48.542;9.052;2022-11-04T00:11:28;95118.84;;;11.60;85.67
22582;BME280;47125;48.542;9.052;2022-11-04T00:21:59;95115.66;;;11.63;85.80
22582;BME280;47125;48.542;9.052;2022-11-04T00:32:20;95120.19;;;11.53;86.53
22582;BME280;47125;48.542;9.052;2022-11-04T00:42:42;95137.06;;;11.58;84.45
22582;BME280;47125;48.542;9.052;2022-11-04T00:52:46;95137.56;;;11.66;83.97
22582;BME280;47125;48.542;9.052;2022-11-04T01:02:48;95137.84;;;11.64;82.83
22582;BME280;47125;48.542;9.052;2022-11-04T01:12:52;95152.56;;;11.56;83.22
22582;BME280;47125;48.542;9.052;2022-11-04T01:22:55;95154.63;;;11.39;85.15
22582;BME280;47125;48.542;9.052;2022-11-04T01:32:58;95167.47;;;11.42;86.02
22582;BME280;47125;48.542;9.052;2022-11-04T01:43:01;95166.88;;;11.25;86.83
22582;BME280;47125;48.542;9.052;2022-11-04T01:53:05;95152.66;;;11.15;88.21
22582;BME280;47125;48.542;9.052;2022-11-04T02:03:11;95145.50;;;11.25;86.52
22582;BME280;47125;48.542;9.052;2022-11-04T02:13:17;95158.28;;;11.18;84.66
22582;BME280;47125;48.542;9.052;2022-11-04T02:23:25;95144.16;;;11.23;82.47
22582;BME280;47125;48.542;9.052;2022-11-04T02:33:32;95147.38;;;11.25;79.77
22582;BME280;47125;48.542;9.052;2022-11-04T02:43:40;95139.63;;;11.23;81.59
22582;BME280;47125;48.542;9.052;2022-11-04T02:53:49;95122.72;;;11.13;84.23
22582;BME280;47125;48.542;9.052;2022-11-04T03:03:54;95119.75;;;11.04;83.98
22582;BME280;47125;48.542;9.052;2022-11-04T03:14:02;95137.41;;;11.05;83.67
22582;BME280;47125;48.542;9.052;2022-11-04T03:24:06;95145.59;;;10.88;83.65
22582;BME280;47125;48.542;9.052;2022-11-04T03:34:10;95163.16;;;10.74;82.99
22582;BME280;47125;48.542;9.052;2022-11-04T03:44:13;95171.25;;;10.84;83.75
22582;BME280;47125;48.542;9.052;2022-11-04T03:54:16;95165.22;;;10.62;84.25
22582;BME280;47125;48.542;9.052;2022-11-04T04:04:22;95183.22;;;10.82;83.18
22582;BME280;47125;48.542;9.052;2022-11-04T04:14:29;95150.13;;;10.83;82.06
22582;BME280;47125;48.542;9.052;2022-11-04T04:24:44;95186.91;;;10.71;82.65
22582;BME280;47125;48.542;9.052;2022-11-04T04:35:07;95206.88;;;10.63;83.76
22582;BME280;47125;48.542;9.052;2022-11-04T04:45:29;95169.75;;;10.62;83.20
22582;BME280;47125;48.542;9.052;2022-11-04T04:55:34;95121.44;;;10.63;82.28
22582;BME280;47125;48.542;9.052;2022-11-04T05:05:42;95103.03;;;10.67;82.31
22582;BME280;47125;48.542;9.052;2022-11-04T05:15:46;95102.31;;;10.39;83.23
22582;BME280;47125;48.542;9.052;2022-11-04T05:25:48;95133.97;;;10.21;83.30
22582;BME280;47125;48.542;9.052;2022-11-04T05:35:52;95131.88;;;10.28;83.31
22582;BME280;47125;48.542;9.052;2022-11-04T05:45:56;95147.41;;;10.04;84.59
22582;BME280;47125;48.542;9.052;2022-11-04T05:56:00;95104.94;;;10.29;83.96
22582;BME280;47125;48.542;9.052;2022-11-04T06:06:03;95118.63;;;10.43;82.30
22582;BME280;47125;48.542;9.052;2022-11-04T06:16:07;95140.63;;;10.18;82.77
22582;BME280;47125;48.542;9.052;2022-11-04T06:26:10;95157.19;;;10.20;82.51
22582;BME280;47125;48.542;9.052;2022-11-04T06:36:14;95177.97;;;10.18;82.84
22582;BME280;47125;48.542;9.052;2022-11-04T06:46:22;95191.50;;;10.12;82.92
22582;BME280;47125;48.542;9.052;2022-11-04T07:06:36;95171.66;;;10.03;83.43
22582;BME280;47125;48.542;9.052;2022-11-04T07:16:44;95141.16;;;10.20;83.15
22582;BME280;47125;48.542;9.052;2022-11-04T07:26:48;95139.59;;;10.24;83.50
22582;BME280;47125;48.542;9.052;2022-11-04T07:36:50;95154.75;;;10.19;82.82
22582;BME280;47125;48.542;9.052;2022-11-04T07:46:54;95144.78;;;10.41;82.84
22582;BME280;47125;48.542;9.052;2022-11-04T07:56:56;95136.81;;;10.46;82.64
22582;BME280;47125;48.542;9.052;2022-11-04T08:07:00;95116.56;;;10.55;78.76
22582;BME280;47125;48.542;9.052;2022-11-04T08:17:03;95122.66;;;10.45;77.30
22582;BME280;47125;48.542;9.052;2022-11-04T08:27:07;95132.38;;;10.62;77.00
22582;BME280;47125;48.542;9.052;2022-11-04T08:37:12;95131.97;;;10.43;78.26
22582;BME280;47125;48.542;9.052;2022-11-04T08:47:15;95149.13;;;10.52;78.03
22582;BME280;47125;48.542;9.052;2022-11-04T08:57:18;95157.44;;;10.61;82.19
22582;BME280;47125;48.542;9.052;2022-11-04T09:07:22;95172.91;;;10.54;80.24
22582;BME280;47125;48.542;9.052;2022-11-04T09:17:24;95178.47;;;10.52;78.91
22582;BME280;47125;48.542;9.052;2022-11-04T09:27:28;95175.69;;;10.69;78.59
22582;BME280;47125;48.542;9.052;2022-11-04T09:37:31;95178.03;;;10.60;77.25
22582;BME280;47125;48.542;9.052;2022-11-04T09:47:34;95175.41;;;11.17;77.99
22582;BME280;47125;48.542;9.052;2022-11-04T09:57:38;95153.56;;;11.35;75.90
22582;BME280;47125;48.542;9.052;2022-11-04T10:07:49;95149.88;;;11.56;74.36
22582;BME280;47125;48.542;9.052;2022-11-04T10:18:03;95152.56;;;11.61;73.67
22582;BME280;47125;48.542;9.052;2022-11-04T10:28:12;95145.41;;;11.82;73.10
22582;BME280;47125;48.542;9.052;2022-11-04T10:38:17;95139.81;;;11.99;72.88
22582;BME280;47125;48.542;9.052;2022-11-04T10:48:23;95130.97;;;11.88;72.27
22582;BME280;47125;48.542;9.052;2022-11-04T10:58:29;95126.69;;;12.02;70.67
22582;BME280;47125;48.542;9.052;2022-11-04T11:08:33;95117.06;;;12.11;71.42
22582;BME280;47125;48.542;9.052;2022-11-04T11:18:37;95113.59;;;12.06;70.48
22582;BME280;47125;48.542;9.052;2022-11-04T11:28:45;95096.72;;;12.21;69.39
22582;BME280;47125;48.542;9.052;2022-11-04T11:38:57;95094.00;;;12.41;68.51
22582;BME280;47125;48.542;9.052;2022-11-04T11:49:03;95088.94;;;12.49;66.74
22582;BME280;47125;48.542;9.052;2022-11-04T11:59:07;95080.84;;;12.69;66.47
22582;BME280;47125;48.542;9.052;2022-11-04T12:09:38;95081.66;;;12.70;67.63
22582;BME280;47125;48.542;9.052;2022-11-04T12:19:47;95079.41;;;12.97;65.46
22582;BME280;47125;48.542;9.052;2022-11-04T12:30:00;95078.53;;;13.17;63.98
22582;BME280;47125;48.542;9.052;2022-11-04T12:40:10;95092.59;;;13.48;61.38
22582;BME280;47125;48.542;9.052;2022-11-04T12:50:17;95096.66;;;13.40;62.42
22582;BME280;47125;48.542;9.052;2022-11-04T13:00:24;95098.47;;;13.55;61.39
22582;BME280;47125;48.542;9.052;2022-11-04T13:10:32;95111.72;;;13.80;59.80
22582;BME280;47125;48.542;9.052;2022-11-04T13:20:38;95113.84;;;13.83;60.89
22582;BME280;47125;48.542;9.052;2022-11-04T13:30:46;95110.03;;;13.89;59.71
22582;BME280;47125;48.542;9.052;2022-11-04T13:40:54;95108.44;;;13.44;60.24
22582;BME280;47125;48.542;9.052;2022-11-04T13:51:05;95119.34;;;13.58;59.85
22582;BME280;47125;48.542;9.052;2022-11-04T14:01:08;95127.88;;;13.70;60.78
22582;BME280;47125;48.542;9.052;2022-11-04T14:11:13;95133.81;;;13.62;60.51
22582;BME280;47125;48.542;9.052;2022-11-04T14:21:16;95137.13;;;13.44;59.99
22582;BME280;47125;48.542;9.052;2022-11-04T14:31:32;95157.22;;;13.51;60.22
22582;BME280;47125;48.542;9.052;2022-11-04T14:52:14;95166.38;;;13.40;61.14
22582;BME280;47125;48.542;9.052;2022-11-04T15:02:18;95180.69;;;13.05;62.31
22582;BME280;47125;48.542;9.052;2022-11-04T15:12:23;95180.50;;;12.77;62.28
22582;BME280;47125;48.542;9.052;2022-11-04T15:22:43;95198.44;;;12.76;63.88
22582;BME280;47125;48.542;9.052;2022-11-04T15:32:57;95196.56;;;12.51;65.77
22582;BME280;47125;48.542;9.052;2022-11-04T15:43:00;95212.88;;;12.14;66.17
22582;BME280;47125;48.542;9.052;2022-11-04T15:53:07;95216.88;;;12.02;67.31
22582;BME280;47125;48.542;9.052;2022-11-04T16:03:16;95228.09;;;11.94;67.08
22582;BME280;47125;48.542;9.052;2022-11-04T16:13:21;95230.47;;;11.80;68.63
22582;BME280;47125;48.542;9.052;2022-11-04T16:23:24;95242.69;;;11.61;69.71
22582;BME280;47125;48.542;9.052;2022-11-04T16:33:29;95256.50;;;11.43;71.13
22582;BME280;47125;48.542;9.052;2022-11-04T16:43:31;95270.38;;;11.40;70.77
22582;BME280;47125;48.542;9.052;2022-11-04T16:53:35;95290.16;;;11.39;71.79
22582;BME280;47125;48.542;9.052;2022-11-04T17:03:38;95309.91;;;11.33;75.28
22582;BME280;47125;48.542;9.052;2022-11-04T17:13:41;95343.88;;;11.32;75.07
22582;BME280;47125;48.542;9.052;2022-11-04T17:23:44;95351.50;;;11.19;76.71
22582;BME280;47125;48.542;9.052;2022-11-04T17:33:48;95358.50;;;11.25;76.87
22582;BME280;47125;48.542;9.052;2022-11-04T17:43:50;95364.84;;;11.14;79.46
22582;BME280;47125;48.542;9.052;2022-11-04T17:54:03;95371.22;;;11.07;80.18
22582;BME280;47125;48.542;9.052;2022-11-04T18:04:06;95387.19;;;11.02;81.41
22582;BME280;47125;48.542;9.052;2022-11-04T18:14:11;95394.41;;;11.02;81.69
22582;BME280;47125;48.542;9.052;2022-11-04T18:24:17;95399.97;;;10.95;82.14
22582;BME280;47125;48.542;9.052;2022-11-04T18:34:22;95409.03;;;10.94;82.10
22582;BME280;47125;48.542;9.052;2022-11-04T18:44:24;95419.16;;;10.92;82.52
22582;BME280;47125;48.542;9.052;2022-11-04T18:54:28;95435.22;;;10.97;83.42
22582;BME280;47125;48.542;9.052;2022-11-04T19:04:30;95433.06;;;10.94;83.57
22582;BME280;47125;48.542;9.052;2022-11-04T19:14:34;95449.00;;;10.84;83.27
22582;BME280;47125;48.542;9.052;2022-11-04T19:24:36;95470.06;;;10.81;85.20
22582;BME280;47125;48.542;9.052;2022-11-04T19:34:40;95493.03;;;10.82;82.55
22582;BME280;47125;48.542;9.052;2022-11-04T19:44:42;95506.84;;;10.74;82.67
22582;BME280;47125;48.542;9.052;2022-11-04T19:54:47;95522.13;;;10.78;83.54
22582;BME280;47125;48.542;9.052;2022-11-04T20:04:49;95530.00;;;10.68;83.20
22582;BME280;47125;48.542;9.052;2022-11-04T20:14:54;95541.56;;;10.74;82.72
22582;BME280;47125;48.542;9.052;2022-11-04T20:24:56;95561.00;;;10.47;83.97
22582;BME280;47125;48.542;9.052;2022-11-04T20:35:00;95576.75;;;10.49;84.24
22582;BME280;47125;48.542;9.052;2022-11-04T20:45:03;95605.28;;;10.65;82.78
22582;BME280;47125;48.542;9.052;2022-11-04T20:55:08;95601.19;;;10.41;83.48
22582;BME280;47125;48.542;9.052;2022-11-04T21:05:11;95607.72;;;10.50;83.82
22582;BME280;47125;48.542;9.052;2022-11-04T21:15:16;95622.22;;;10.54;83.99
22582;BME280;47125;48.542;9.052;2022-11-04T21:25:36;95622.38;;;10.47;84.51
22582;BME280;47125;48.542;9.052;2022-11-04T21:35:41;95634.16;;;10.51;84.02
22582;BME280;47125;48.542;9.052;2022-11-04T21:45:44;95644.94;;;10.57;82.91
22582;BME280;47125;48.542;9.052;2022-11-04T21:55:47;95654.19;;;10.32;85.88
22582;BME280;47125;48.542;9.052;2022-11-04T22:05:57;95657.59;;;10.44;85.81
22582;BME280;47125;48.542;9.052;2022-11-04T22:16:00;95660.63;;;10.36;85.67
22582;BME280;47125;48.542;9.052;2022-11-04T22:26:04;95668.00;;;10.46;85.00
22582;BME280;47125;48.542;9.052;2022-11-04T22:36:08;95680.06;;;10.32;84.13
22582;BME280;47125;48.542;9.052;2022-11-04T22:46:12;95686.06;;;10.39;83.35
22582;BME280;47125;48.542;9.052;2022-11-04T22:56:16;95684.50;;;10.43;82.00
22582;BME280;47125;48.542;9.052;2022-11-04T23:06:18;95696.72;;;10.39;82.64
22582;BME280;47125;48.542;9.052;2022-11-04T23:16:22;95697.84;;;10.26;83.96
22582;BME280;47125;48.542;9.052;2022-11-04T23:26:42;95694.63;;;10.24;83.48
22582;BME280;47125;48.542;9.052;2022-11-04T23:36:47;95710.53;;;10.19;83.46
22582;BME280;47125;48.542;9.052;2022-11-04T23:47:07;95716.38;;;10.16;82.37
22582;BME280;47125;48.542;9.052;2022-11-04T23:57:29;95728.19;;;10.20;82.56
